Time;durP1;ratioP1;P1;durP2;ratioP2;P2;SDS_P1;SDS_P2;PMS_P1;PMS_P2;Temp;Humidity;BMP_temperature;BMP_pressure;BME280_temperature;BME280_humidity;BME280_pressure;Samples;Min_cycle;Max_cycle;Signal;HPM_P1;HPM_P2
2022/08/07 00:02:34;;;;;;;0.50;0.50;;;14.20;99.90;;;;;;5153054;27;20202;-64
2022/08/07 00:05:31;;;;;;;0.43;0.43;;;14.20;99.90;;;;;;5152350;27;20765;-66
2022/08/07 00:08:23;;;;;;;0.50;0.50;;;14.20;99.90;;;;;;5156537;27;20470;-64
2022/08/07 00:11:11;;;;;;;0.40;0.40;;;14.10;99.90;;;;;;5156228;27;20416;-67
2022/08/07 00:14:06;;;;;;;0.47;0.47;;;14.10;99.90;;;;;;5156460;27;20962;-65
2022/08/07 00:16:58;;;;;;;0.50;0.50;;;14.00;99.90;;;;;;5156641;27;20447;-65
2022/08/07 00:19:47;;;;;;;0.50;0.50;;;14.00;99.90;;;;;;5155760;27;20488;-67
2022/08/07 00:22:50;;;;;;;0.40;0.40;;;13.90;99.90;;;;;;5156971;27;20954;-66
2022/08/07 00:25:38;;;;;;;0.50;0.50;;;13.90;99.90;;;;;;5156633;27;20419;-65
2022/08/07 00:28:29;;;;;;;0.80;0.80;;;13.80;99.90;;;;;;5157665;27;20854;-64
2022/08/07 00:31:21;;;;;;;0.50;0.50;;;13.80;99.90;;;;;;5156820;27;20419;-64
2022/08/07 00:34:09;;;;;;;0.50;0.50;;;13.90;99.90;;;;;;5156323;27;20480;-64
2022/08/07 00:36:59;;;;;;;0.40;0.40;;;13.70;99.90;;;;;;5156757;27;20455;-64
2022/08/07 00:39:47;;;;;;;0.50;0.50;;;13.70;99.90;;;;;;5155908;27;20431;-67
2022/08/07 00:42:42;;;;;;;0.50;0.50;;;13.70;99.90;;;;;;5156190;27;20427;-64
2022/08/07 00:45:37;;;;;;;0.50;0.50;;;13.80;99.90;;;;;;5157415;27;20508;-64
2022/08/07 00:48:26;;;;;;;0.40;0.40;;;;;;;;;;5157384;27;20416;-64
2022/08/07 00:51:19;;;;;;;0.40;0.40;;;;;;;;;;5156099;27;20460;-66
2022/08/07 00:54:12;;;;;;;0.50;0.50;;;13.50;99.90;;;;;;5158817;27;20419;-67
2022/08/07 00:57:01;;;;;;;0.50;0.50;;;13.40;99.90;;;;;;5156339;27;20477;-66
2022/08/07 00:59:51;;;;;;;0.80;0.80;;;13.40;99.90;;;;;;5156062;27;20442;-65
2022/08/07 01:02:39;;;;;;;0.50;0.50;;;13.20;99.90;;;;;;5159923;27;20427;-64
2022/08/07 01:05:29;;;;;;;0.60;0.60;;;13.20;99.90;;;;;;5161578;27;20959;-65
2022/08/07 01:08:23;;;;;;;0.40;0.40;;;13.30;99.90;;;;;;5161655;27;20482;-66
2022/08/07 01:11:16;;;;;;;0.40;0.40;;;13.20;99.90;;;;;;5161282;27;20871;-65
2022/08/07 01:14:25;;;;;;;0.40;0.40;;;13.20;99.90;;;;;;5160667;27;20844;-65
2022/08/07 01:17:17;;;;;;;0.40;0.40;;;13.20;99.90;;;;;;5160985;27;20549;-66
2022/08/07 01:20:08;;;;;;;0.50;0.50;;;13.20;99.90;;;;;;5160863;27;20452;-67
2022/08/07 01:23:05;;;;;;;0.50;0.50;;;13.20;99.90;;;;;;5161289;27;20803;-66
2022/08/07 01:26:00;;;;;;;0.40;0.40;;;13.10;99.90;;;;;;5161549;27;20443;-65
2022/08/07 01:28:50;;;;;;;0.50;0.50;;;13.20;99.90;;;;;;5160542;27;20428;-65
2022/08/07 01:31:39;;;;;;;0.50;0.50;;;13.20;99.90;;;;;;5160307;27;21059;-65
2022/08/07 01:34:31;;;;;;;0.50;0.50;;;13.10;99.90;;;;;;5160223;27;20427;-66
2022/08/07 01:37:21;;;;;;;0.40;0.40;;;13.10;99.90;;;;;;5160169;27;20489;-66
2022/08/07 01:40:12;;;;;;;0.50;0.50;;;13.10;99.90;;;;;;5159728;27;20424;-66
2022/08/07 01:43:02;;;;;;;0.47;0.47;;;13.10;99.90;;;;;;5160333;27;20420;-65
2022/08/07 01:45:51;;;;;;;0.50;0.50;;;13.10;99.90;;;;;;5159406;27;20427;-67
2022/08/07 01:48:42;;;;;;;0.40;0.40;;;;;;;;;;5160405;27;21011;-67
2022/08/07 01:51:36;;;;;;;0.40;0.40;;;13.10;99.90;;;;;;5160684;27;20455;-68
2022/08/07 01:54:45;;;;;;;0.50;0.50;;;13.00;99.90;;;;;;5160104;27;20515;-65
2022/08/07 01:57:43;;;;;;;0.40;0.40;;;13.00;99.90;;;;;;5159945;27;20444;-66
2022/08/07 02:00:57;;;;;;;0.40;0.40;;;13.00;99.90;;;;;;5155743;27;20519;-64
2022/08/07 02:04:09;;;;;;;0.40;0.40;;;13.00;99.90;;;;;;5157371;27;20416;-65
2022/08/07 02:07:00;;;;;;;0.50;0.50;;;13.00;99.90;;;;;;5159307;27;20451;-65
2022/08/07 02:09:52;;;;;;;0.40;0.40;;;13.00;99.90;;;;;;5158975;27;20427;-65
2022/08/07 02:12:49;;;;;;;0.50;0.50;;;12.90;99.90;;;;;;5158056;27;20428;-65
2022/08/07 02:15:39;;;;;;;0.50;0.50;;;12.90;99.90;;;;;;5159990;27;20431;-65
2022/08/07 02:18:30;;;;;;;0.50;0.50;;;12.90;99.90;;;;;;5158817;27;20464;-64
2022/08/07 02:21:19;;;;;;;0.40;0.40;;;12.90;99.90;;;;;;5157675;27;20424;-65
2022/08/07 02:24:09;;;;;;;0.50;0.50;;;12.80;99.90;;;;;;5158171;27;20422;-65
2022/08/07 02:27:05;;;;;;;0.50;0.50;;;12.90;99.90;;;;;;5158600;27;20436;-63
2022/08/07 02:29:58;;;;;;;0.50;0.50;;;12.90;99.90;;;;;;5158286;27;20416;-66
2022/08/07 02:32:52;;;;;;;0.50;0.50;;;12.80;99.90;;;;;;5158635;27;21006;-66
2022/08/07 02:35:58;;;;;;;0.50;0.50;;;12.60;99.90;;;;;;5158633;27;20430;-66
2022/08/07 02:39:08;;;;;;;0.50;0.50;;;12.60;99.90;;;;;;5158032;27;20430;-64
2022/08/07 02:42:17;;;;;;;0.50;0.50;;;12.60;99.90;;;;;;5157962;27;20424;-66
2022/08/07 02:45:11;;;;;;;0.50;0.50;;;12.50;99.90;;;;;;5159022;27;20423;-65
2022/08/07 02:48:19;;;;;;;0.50;0.50;;;12.50;99.90;;;;;;5158280;27;20415;-66
2022/08/07 02:51:12;;;;;;;0.50;0.50;;;12.50;99.90;;;;;;5157729;27;20508;-67
2022/08/07 02:54:23;;;;;;;0.50;0.50;;;12.50;99.90;;;;;;5158751;27;20787;-66
2022/08/07 02:57:13;;;;;;;0.50;0.50;;;12.50;99.90;;;;;;5158117;27;20440;-66
2022/08/07 03:00:04;;;;;;;0.50;0.50;;;12.60;99.90;;;;;;5157483;27;20423;-66
2022/08/07 03:03:01;;;;;;;0.43;0.43;;;12.50;99.90;;;;;;5138185;27;20417;-65
2022/08/07 03:05:55;;;;;;;0.50;0.50;;;12.50;99.90;;;;;;5136998;27;20573;-66
2022/08/07 03:08:44;;;;;;;0.50;0.50;;;12.60;99.90;;;;;;5137412;27;20425;-64
2022/08/07 03:11:35;;;;;;;0.50;0.50;;;12.40;99.90;;;;;;5136913;27;20471;-65
2022/08/07 03:14:39;;;;;;;0.50;0.50;;;12.40;99.90;;;;;;5137696;27;20452;-67
2022/08/07 03:17:36;;;;;;;0.50;0.50;;;12.40;99.90;;;;;;5137797;27;20454;-66
2022/08/07 03:20:44;;;;;;;0.50;0.50;;;12.40;99.90;;;;;;5137124;27;20965;-66
2022/08/07 03:23:37;;;;;;;0.50;0.50;;;12.30;99.90;;;;;;5136880;27;20504;-65
2022/08/07 03:26:49;;;;;;;0.50;0.50;;;12.30;99.90;;;;;;5137685;27;20448;-66
2022/08/07 03:29:49;;;;;;;0.50;0.50;;;12.30;99.90;;;;;;5137917;27;20429;-65
2022/08/07 03:32:40;;;;;;;0.40;0.40;;;12.20;99.90;;;;;;5137252;27;20523;-65
2022/08/07 03:35:47;;;;;;;0.50;0.50;;;12.20;99.90;;;;;;5136921;27;20416;-65
2022/08/07 03:38:39;;;;;;;0.50;0.50;;;12.20;99.90;;;;;;5117356;28;20945;-66
2022/08/07 03:41:29;;;;;;;0.50;0.50;;;12.20;99.90;;;;;;5136814;27;20420;-66
2022/08/07 03:44:38;;;;;;;0.50;0.50;;;12.20;99.90;;;;;;5137899;27;20975;-66
2022/08/07 03:47:26;;;;;;;0.50;0.50;;;12.10;99.90;;;;;;5136967;27;20528;-65
2022/08/07 03:50:35;;;;;;;0.50;0.50;;;12.20;99.90;;;;;;5136849;27;20500;-66
2022/08/07 03:53:26;;;;;;;0.50;0.50;;;12.00;99.90;;;;;;5136676;27;20431;-67
2022/08/07 03:56:36;;;;;;;0.50;0.50;;;12.00;99.90;;;;;;5136957;27;21093;-67
2022/08/07 03:59:27;;;;;;;0.50;0.50;;;12.10;99.90;;;;;;5136040;27;20429;-65
2022/08/07 04:02:15;;;;;;;0.50;0.50;;;;;;;;;;5151510;27;20480;-65
2022/08/07 04:05:04;;;;;;;0.50;0.50;;;12.20;99.90;;;;;;5158283;27;20971;-65
2022/08/07 04:07:55;;;;;;;0.50;0.50;;;12.20;99.90;;;;;;5157557;27;20944;-67
2022/08/07 04:10:47;;;;;;;0.50;0.50;;;12.10;99.90;;;;;;5157619;27;20432;-65
2022/08/07 04:13:56;;;;;;;0.40;0.40;;;12.20;99.90;;;;;;5158452;27;20469;-64
2022/08/07 04:17:04;;;;;;;0.43;0.43;;;12.20;99.90;;;;;;5157611;27;20439;-66
2022/08/07 04:20:11;;;;;;;0.40;0.40;;;12.30;99.90;;;;;;5157361;27;20464;-67
2022/08/07 04:22:59;;;;;;;0.40;0.40;;;12.30;99.90;;;;;;5157260;27;20416;-66
2022/08/07 04:25:52;;;;;;;0.50;0.50;;;12.40;99.90;;;;;;5157658;27;20424;-65
2022/08/07 04:28:43;;;;;;;0.50;0.50;;;12.60;99.90;;;;;;5158221;27;20854;-68
2022/08/07 04:31:32;;;;;;;0.47;0.47;;;12.40;99.90;;;;;;5157905;27;20494;-65
2022/08/07 04:34:40;;;;;;;0.50;0.50;;;12.50;99.90;;;;;;5157584;27;20514;-65
2022/08/07 04:37:28;;;;;;;0.50;0.50;;;;;;;;;;5160998;27;20436;-65
2022/08/07 04:40:40;;;;;;;0.40;0.40;;;12.60;99.90;;;;;;5162195;27;20572;-64
2022/08/07 04:43:43;;;;;;;0.50;0.50;;;12.70;99.90;;;;;;5161301;27;20416;-66
2022/08/07 04:47:00;;;;;;;0.50;0.50;;;12.70;99.90;;;;;;5160940;27;20446;-65
2022/08/07 04:50:02;;;;;;;0.40;0.40;;;12.80;99.90;;;;;;5161757;27;20424;-66
2022/08/07 04:52:59;;;;;;;0.50;0.50;;;12.80;99.90;;;;;;5161662;27;20882;-66
2022/08/07 04:55:55;;;;;;;0.50;0.50;;;13.00;99.90;;;;;;5160579;27;20452;-66
2022/08/07 04:59:12;;;;;;;0.50;0.50;;;13.00;99.90;;;;;;5160484;27;20500;-63
2022/08/07 05:02:26;;;;;;;0.50;0.50;;;13.10;99.90;;;;;;5161035;27;20484;-67
2022/08/07 05:05:22;;;;;;;0.50;0.50;;;13.20;99.90;;;;;;5160807;27;20487;-66
2022/08/07 05:08:40;;;;;;;0.50;0.50;;;13.30;99.90;;;;;;5160098;27;20959;-67
2022/08/07 05:11:51;;;;;;;0.50;0.50;;;13.30;99.90;;;;;;5160231;27;20976;-67
2022/08/07 05:14:52;;;;;;;16.63;10.60;;;13.50;99.90;;;;;;5158581;27;20426;-64
2022/08/07 05:17:56;;;;;;;0.40;0.40;;;13.60;99.90;;;;;;5159133;27;20435;-65
2022/08/07 05:20:51;;;;;;;0.40;0.40;;;13.80;99.90;;;;;;5159632;27;20452;-64
2022/08/07 05:23:47;;;;;;;0.50;0.50;;;13.90;99.90;;;;;;5160907;27;20507;-66
2022/08/07 05:26:37;;;;;;;0.50;0.50;;;13.90;99.90;;;;;;5159182;27;20504;-65
2022/08/07 05:29:27;;;;;;;0.50;0.50;;;14.00;99.90;;;;;;5159421;27;20427;-65
2022/08/07 05:32:39;;;;;;;0.50;0.50;;;14.10;99.90;;;;;;5158356;27;20451;-64
2022/08/07 05:35:28;;;;;;;0.50;0.50;;;14.10;99.90;;;;;;5157990;27;20461;-64
2022/08/07 05:38:22;;;;;;;0.50;0.50;;;14.30;99.90;;;;;;5158680;27;20415;-65
2022/08/07 05:41:31;;;;;;;0.40;0.40;;;14.40;99.90;;;;;;5159589;27;20549;-64
2022/08/07 05:44:40;;;;;;;0.50;0.50;;;14.60;99.90;;;;;;5157579;27;20416;-65
2022/08/07 05:47:42;;;;;;;0.50;0.50;;;14.80;99.90;;;;;;5157727;27;20431;-68
2022/08/07 05:50:50;;;;;;;0.50;0.50;;;14.70;99.90;;;;;;5158885;27;20423;-65
2022/08/07 05:53:38;;;;;;;0.40;0.40;;;15.00;99.90;;;;;;5157627;27;20467;-65
2022/08/07 05:56:47;;;;;;;0.40;0.40;;;15.10;99.90;;;;;;5157475;27;20568;-64
2022/08/07 05:59:41;;;;;;;0.40;0.40;;;15.20;99.90;;;;;;5158581;27;20420;-67
2022/08/07 06:02:50;;;;;;;0.50;0.50;;;15.40;99.90;;;;;;5157693;27;20420;-64
2022/08/07 06:05:38;;;;;;;0.40;0.40;;;15.40;99.90;;;;;;5158539;27;20425;-64
2022/08/07 06:08:35;;;;;;;0.40;0.40;;;15.60;99.90;;;;;;5156519;27;20273;-63
2022/08/07 06:11:30;;;;;;;0.40;0.40;;;15.60;99.90;;;;;;5156053;27;20420;-63
2022/08/07 06:14:18;;;;;;;0.50;0.50;;;15.80;99.90;;;;;;5156070;27;20198;-64
2022/08/07 06:17:17;;;;;;;0.50;0.50;;;15.80;99.90;;;;;;5156956;27;20443;-64
2022/08/07 06:20:09;;;;;;;0.50;0.50;;;16.00;99.90;;;;;;5155747;27;20690;-65
2022/08/07 06:23:12;;;;;;;0.40;0.40;;;16.10;99.90;;;;;;5155428;27;20531;-64
2022/08/07 06:26:21;;;;;;;0.40;0.40;;;16.10;99.90;;;;;;5155373;27;20214;-64
2022/08/07 06:29:14;;;;;;;0.50;0.50;;;16.20;99.90;;;;;;5155620;27;20503;-63
2022/08/07 06:32:03;;;;;;;0.40;0.40;;;16.30;99.90;;;;;;5155710;27;20582;-64
2022/08/07 06:34:51;;;;;;;0.50;0.50;;;16.40;99.90;;;;;;5155689;27;20424;-66
2022/08/07 06:37:40;;;;;;;0.40;0.40;;;16.40;99.90;;;;;;5155343;27;20218;-66
2022/08/07 06:40:37;;;;;;;0.50;0.50;;;16.50;99.90;;;;;;5155081;27;20190;-64
2022/08/07 06:43:37;;;;;;;0.50;0.50;;;16.60;99.90;;;;;;5155475;27;20329;-63
2022/08/07 06:46:27;;;;;;;0.40;0.40;;;16.70;99.90;;;;;;5154884;27;20286;-63
2022/08/07 06:49:22;;;;;;;0.50;0.50;;;17.00;99.90;;;;;;5155475;27;20284;-66
2022/08/07 06:52:17;;;;;;;0.40;0.40;;;16.90;99.90;;;;;;5156002;27;20214;-64
2022/08/07 06:55:24;;;;;;;0.40;0.40;;;17.00;99.90;;;;;;5154966;27;20193;-63
2022/08/07 06:58:34;;;;;;;0.50;0.50;;;17.10;99.90;;;;;;5154391;27;20586;-65
2022/08/07 07:01:25;;;;;;;0.40;0.40;;;17.20;99.90;;;;;;5154733;27;20686;-63
2022/08/07 07:04:20;;;;;;;0.50;0.50;;;17.20;99.90;;;;;;5154170;27;20200;-63
2022/08/07 07:07:20;;;;;;;0.40;0.40;;;17.40;99.90;;;;;;5153209;27;20226;-64
2022/08/07 07:10:33;;;;;;;0.40;0.40;;;17.60;99.90;;;;;;5152381;27;20280;-64
2022/08/07 07:13:28;;;;;;;0.40;0.40;;;17.60;99.90;;;;;;5152443;27;20220;-65
2022/08/07 07:16:38;;;;;;;0.40;0.40;;;17.60;99.90;;;;;;5152259;27;20596;-65
2022/08/07 07:19:45;;;;;;;0.40;0.40;;;17.80;99.90;;;;;;5152689;27;20665;-65
2022/08/07 07:22:46;;;;;;;0.50;0.50;;;18.00;99.90;;;;;;5152847;27;20202;-65
2022/08/07 07:26:01;;;;;;;0.40;0.40;;;17.90;99.90;;;;;;5152308;27;20278;-64
2022/08/07 07:29:13;;;;;;;0.50;0.50;;;18.00;99.90;;;;;;5151818;27;20233;-65
2022/08/07 07:32:23;;;;;;;0.40;0.40;;;18.10;99.90;;;;;;5152362;27;20275;-65
2022/08/07 07:35:12;;;;;;;0.40;0.40;;;18.10;99.90;;;;;;5152288;27;20322;-66
2022/08/07 07:38:01;;;;;;;0.40;0.40;;;18.20;99.90;;;;;;5152234;27;20218;-66
2022/08/07 07:40:57;;;;;;;0.40;0.40;;;18.30;99.90;;;;;;5152354;27;20665;-65
2022/08/07 07:43:53;;;;;;;0.40;0.40;;;18.40;99.90;;;;;;5151736;27;20229;-65
2022/08/07 07:47:03;;;;;;;0.40;0.40;;;18.40;99.90;;;;;;5152239;27;20342;-65
2022/08/07 07:50:07;;;;;;;0.40;0.40;;;18.60;99.90;;;;;;5150800;27;20673;-65
2022/08/07 07:53:17;;;;;;;0.40;0.40;;;18.60;99.90;;;;;;5151084;27;20209;-65
2022/08/07 07:56:16;;;;;;;0.40;0.40;;;18.80;99.90;;;;;;5151698;27;20602;-67
2022/08/07 07:59:18;;;;;;;0.50;0.50;;;18.80;99.90;;;;;;5151224;27;20194;-65
2022/08/07 08:02:28;;;;;;;0.40;0.40;;;18.90;99.90;;;;;;5151589;27;20666;-65
2022/08/07 08:05:23;;;;;;;0.40;0.40;;;19.00;99.90;;;;;;5152386;27;20205;-65
2022/08/07 08:08:32;;;;;;;0.40;0.40;;;19.20;99.90;;;;;;5152201;27;20697;-66
2022/08/07 08:11:28;;;;;;;0.40;0.40;;;19.20;99.90;;;;;;5155568;27;20319;-65
2022/08/07 08:14:36;;;;;;;0.40;0.40;;;19.20;99.90;;;;;;5157141;27;20269;-65
2022/08/07 08:17:28;;;;;;;0.40;0.40;;;19.30;99.90;;;;;;5156311;27;20210;-66
2022/08/07 08:20:38;;;;;;;0.40;0.40;;;19.30;99.90;;;;;;5156623;27;20730;-66
2022/08/07 08:29:51;;;;;;;0.40;0.40;;;19.60;99.90;;;;;;5156529;27;20201;-65
2022/08/07 08:32:47;;;;;;;0.40;0.40;;;19.70;99.90;;;;;;5156155;27;20695;-66
2022/08/07 08:35:39;;;;;;;0.40;0.40;;;19.80;99.90;;;;;;5156899;27;20198;-63
2022/08/07 08:38:43;;;;;;;0.40;0.40;;;19.80;99.90;;;;;;5156079;27;20230;-64
2022/08/07 08:41:41;;;;;;;0.40;0.40;;;20.00;99.10;;;;;;5156123;27;20194;-64
2022/08/07 08:44:58;;;;;;;0.50;0.50;;;20.00;98.50;;;;;;5156045;27;20295;-64
2022/08/07 08:48:00;;;;;;;0.40;0.40;;;20.10;97.80;;;;;;5156295;27;20218;-64
2022/08/07 08:50:56;;;;;;;0.40;0.40;;;20.10;97.50;;;;;;5155632;27;20198;-65
2022/08/07 08:53:57;;;;;;;0.40;0.40;;;20.20;97.40;;;;;;5156252;27;20210;-65
2022/08/07 08:56:51;;;;;;;0.40;0.40;;;20.30;96.90;;;;;;5155992;27;20309;-64
2022/08/07 08:59:50;;;;;;;0.40;0.40;;;20.50;96.80;;;;;;5155415;27;20198;-67
2022/08/07 09:02:46;;;;;;;0.40;0.40;;;20.60;96.30;;;;;;5156705;27;20197;-64
2022/08/07 09:05:47;;;;;;;0.40;0.40;;;20.60;95.90;;;;;;5155684;27;20347;-64
2022/08/07 09:08:46;;;;;;;0.50;0.50;;;20.80;95.40;;;;;;5154317;27;20202;-65
2022/08/07 09:11:41;;;;;;;0.57;0.57;;;20.90;95.10;;;;;;5155037;27;20201;-65
2022/08/07 09:14:48;;;;;;;0.40;0.40;;;21.00;94.20;;;;;;5154618;27;20220;-64
2022/08/07 09:17:48;;;;;;;0.50;0.50;;;21.10;94.30;;;;;;5154220;27;20210;-65
2022/08/07 09:21:05;;;;;;;0.40;0.40;;;21.20;93.00;;;;;;5155071;27;20281;-64
2022/08/07 09:24:12;;;;;;;0.40;0.40;;;21.20;92.80;;;;;;5154144;27;20200;-66
2022/08/07 09:27:29;;;;;;;0.40;0.40;;;21.30;92.90;;;;;;5154646;27;20301;-65
2022/08/07 09:30:18;;;;;;;0.40;0.40;;;21.40;92.10;;;;;;5154500;27;20194;-65
2022/08/07 09:33:32;;;;;;;0.40;0.40;;;21.40;92.00;;;;;;5154212;27;20274;-64
2022/08/07 09:36:47;;;;;;;0.40;0.40;;;21.40;91.50;;;;;;5153529;27;20214;-65
2022/08/07 09:39:48;;;;;;;0.40;0.40;;;21.30;90.60;;;;;;5154492;27;20238;-66
2022/08/07 09:42:52;;;;;;;0.40;0.40;;;21.20;91.20;;;;;;5154681;27;20202;-64
2022/08/07 09:45:47;;;;;;;0.40;0.40;;;21.10;91.00;;;;;;5154201;27;20194;-67
2022/08/07 09:49:05;;;;;;;0.40;0.40;;;21.30;91.10;;;;;;5154049;27;20280;-67
2022/08/07 09:52:21;;;;;;;0.40;0.40;;;21.70;90.90;;;;;;5154346;27;20198;-65
2022/08/07 09:55:26;;;;;;;0.40;0.40;;;22.10;89.90;;;;;;5154219;27;20294;-65
2022/08/07 09:58:43;;;;;;;0.40;0.40;;;22.50;89.50;;;;;;5154695;27;20220;-66
2022/08/07 10:01:57;;;;;;;0.40;0.40;;;22.90;89.10;;;;;;5153970;27;20202;-65
2022/08/07 10:05:10;;;;;;;0.40;0.40;;;23.20;87.90;;;;;;5154317;27;20194;-65
2022/08/07 10:08:15;;;;;;;0.40;0.40;;;23.40;85.00;;;;;;5153358;27;20226;-65
2022/08/07 10:11:11;;;;;;;0.40;0.40;;;23.40;84.00;;;;;;5153680;27;20261;-67
2022/08/07 10:14:49;;;;;;;0.50;0.50;;;23.40;84.60;;;;;;5153745;27;20222;-65
2022/08/07 10:17:56;;;;;;;0.40;0.40;;;23.40;83.00;;;;;;5153364;27;20214;-65
2022/08/07 10:21:05;;;;;;;0.40;0.40;;;23.30;82.30;;;;;;5153275;27;20198;-66
2022/08/07 10:24:32;;;;;;;0.40;0.40;;;23.40;82.40;;;;;;5153918;27;20270;-65
2022/08/07 10:27:40;;;;;;;0.40;0.40;;;23.60;80.70;;;;;;5153405;27;20221;-65
2022/08/07 10:30:43;;;;;;;0.40;0.40;;;23.60;80.20;;;;;;5152641;27;20198;-65
2022/08/07 10:33:47;;;;;;;0.40;0.40;;;23.80;79.30;;;;;;5151805;27;20247;-64
2022/08/07 10:37:06;;;;;;;0.40;0.40;;;23.80;77.90;;;;;;5153750;27;20772;-65
2022/08/07 10:40:06;;;;;;;0.40;0.40;;;23.80;76.80;;;;;;5153090;27;20327;-65
2022/08/07 10:43:01;;;;;;;2.45;2.35;;;23.80;77.30;;;;;;5152782;27;20190;-65
2022/08/07 10:45:55;;;;;;;0.40;0.40;;;24.00;76.40;;;;;;5152661;27;20226;-64
2022/08/07 10:48:57;;;;;;;0.40;0.40;;;23.60;75.40;;;;;;5153268;27;20220;-64
2022/08/07 10:51:54;;;;;;;0.40;0.40;;;23.50;76.50;;;;;;5152420;27;20258;-63
2022/08/07 10:55:11;;;;;;;0.80;0.80;;;23.60;75.70;;;;;;5152129;27;20231;-64
2022/08/07 10:58:43;;;;;;;0.40;0.40;;;23.40;75.60;;;;;;5153150;27;20277;-66
2022/08/07 11:01:45;;;;;;;0.40;0.40;;;23.30;76.10;;;;;;5151768;27;20194;-65
2022/08/07 11:05:01;;;;;;;0.60;0.60;;;23.40;76.40;;;;;;5154122;27;20250;-64
2022/08/07 11:08:09;;;;;;;0.40;0.40;;;23.60;74.10;;;;;;5153462;27;20236;-65
2022/08/07 11:11:10;;;;;;;0.60;0.60;;;23.60;72.70;;;;;;5153504;27;20194;-65
2022/08/07 11:14:04;;;;;;;0.40;0.40;;;23.50;70.10;;;;;;5153467;27;20206;-65
2022/08/07 11:17:17;;;;;;;0.45;0.45;;;23.30;70.70;;;;;;5155936;27;20624;-66
2022/08/07 11:20:35;;;;;;;0.40;0.40;;;23.40;75.30;;;;;;5156005;27;20307;-66
2022/08/07 11:23:30;;;;;;;0.40;0.40;;;23.60;73.90;;;;;;5156518;27;20190;-65
2022/08/07 11:26:35;;;;;;;0.40;0.40;;;23.80;74.80;;;;;;5156109;27;20635;-65
2022/08/07 11:29:38;;;;;;;0.40;0.40;;;24.00;74.00;;;;;;5156593;27;20201;-65
2022/08/07 11:32:37;;;;;;;0.40;0.40;;;24.30;74.30;;;;;;5154791;27;20221;-64
2022/08/07 11:35:34;;;;;;;0.40;0.40;;;24.50;72.70;;;;;;5153778;27;20616;-64
2022/08/07 11:38:49;;;;;;;0.40;0.40;;;24.70;72.90;;;;;;5153759;27;20194;-65
2022/08/07 11:41:44;;;;;;;0.40;0.40;;;24.70;71.00;;;;;;5154442;27;20229;-65
2022/08/07 11:44:54;;;;;;;0.40;0.40;;;24.80;71.00;;;;;;5153269;27;20198;-66
2022/08/07 11:47:57;;;;;;;0.40;0.40;;;24.90;70.20;;;;;;5154560;27;20236;-66
2022/08/07 11:51:04;;;;;;;0.40;0.40;;;25.00;69.50;;;;;;5153266;27;20272;-65
2022/08/07 11:54:10;;;;;;;0.40;0.40;;;25.10;68.50;;;;;;5153895;27;20280;-65
2022/08/07 11:57:11;;;;;;;0.40;0.40;;;25.10;67.90;;;;;;5153157;27;20221;-65
2022/08/07 12:00:10;;;;;;;0.50;0.50;;;25.00;67.80;;;;;;5152972;27;20196;-65
2022/08/07 12:03:36;;;;;;;0.40;0.40;;;24.80;67.90;;;;;;5132632;28;20198;-65
2022/08/07 12:06:40;;;;;;;0.40;0.40;;;24.40;65.70;;;;;;5131476;28;20301;-66
2022/08/07 12:09:49;;;;;;;0.43;0.43;;;24.20;65.90;;;;;;5130370;28;20195;-65
2022/08/07 12:12:43;;;;;;;0.40;0.40;;;24.20;66.70;;;;;;5130681;28;20203;-65
2022/08/07 12:15:38;;;;;;;0.40;0.40;;;24.00;65.50;;;;;;5131033;28;20301;-65
2022/08/07 12:18:51;;;;;;;0.40;0.40;;;23.90;66.10;;;;;;5130852;27;20195;-65
2022/08/07 12:21:44;;;;;;;0.40;0.40;;;23.80;65.70;;;;;;5110229;28;20191;-65
2022/08/07 12:28:31;;;;;;;0.40;0.40;;;24.30;68.20;;;;;;5130155;28;20278;-65
2022/08/07 12:31:31;;;;;;;0.40;0.40;;;24.60;65.50;;;;;;5130981;28;20671;-65
2022/08/07 12:34:41;;;;;;;0.40;0.40;;;24.90;66.50;;;;;;5130923;28;20282;-65
2022/08/07 12:37:39;;;;;;;0.40;0.40;;;25.10;64.10;;;;;;5130779;28;20229;-65
2022/08/07 12:40:49;;;;;;;0.40;0.40;;;25.40;63.40;;;;;;5130863;28;20686;-65
2022/08/07 12:43:42;;;;;;;0.40;0.40;;;25.40;63.60;;;;;;5130834;28;20206;-65
2022/08/07 12:47:02;;;;;;;0.40;0.40;;;25.60;64.10;;;;;;5130684;28;20643;-65
2022/08/07 12:50:02;;;;;;;0.40;0.40;;;26.00;62.80;;;;;;5131040;28;20194;-65
2022/08/07 12:53:18;;;;;;;0.40;0.40;;;26.40;61.60;;;;;;5130647;28;20645;-63
2022/08/07 12:56:15;;;;;;;0.60;0.60;;;27.30;60.20;;;;;;5130074;27;20705;-63
2022/08/07 12:59:08;;;;;;;0.40;0.40;;;28.40;58.60;;;;;;5133592;27;20336;-63
2022/08/07 13:02:26;;;;;;;0.40;0.40;;;29.60;56.00;;;;;;5148309;27;20280;-64
2022/08/07 13:05:38;;;;;;;0.40;0.40;;;31.00;53.60;;;;;;5155725;27;20576;-67
2022/08/07 13:08:55;;;;;;;0.40;0.40;;;32.80;51.30;;;;;;5155524;27;20617;-63
2022/08/07 13:11:55;;;;;;;0.40;0.40;;;34.80;47.70;;;;;;5155540;27;20203;-64
2022/08/07 13:15:07;;;;;;;0.40;0.40;;;36.10;45.10;;;;;;5155935;27;20550;-64
2022/08/07 13:18:10;;;;;;;0.40;0.40;;;37.60;43.50;;;;;;5155435;27;20275;-64
2022/08/07 13:21:18;;;;;;;0.70;0.70;;;39.10;40.60;;;;;;5155025;27;20198;-65
2022/08/07 13:24:35;;;;;;;0.40;0.40;;;39.80;37.90;;;;;;5155636;27;20315;-64
2022/08/07 13:27:36;;;;;;;0.40;0.40;;;40.30;36.50;;;;;;5155708;27;20216;-64
2022/08/07 13:30:54;;;;;;;0.40;0.40;;;40.30;36.00;;;;;;5155593;27;20559;-64
2022/08/07 13:33:59;;;;;;;0.50;0.50;;;40.80;36.00;;;;;;5155147;27;20209;-64
2022/08/07 13:37:16;;;;;;;0.40;0.40;;;42.00;34.40;;;;;;5154985;27;20222;-65
2022/08/07 13:40:25;;;;;;;0.40;0.40;;;43.50;33.50;;;;;;5155346;27;20196;-66
2022/08/07 13:43:28;;;;;;;0.50;0.50;;;44.70;32.40;;;;;;5155261;27;20201;-66
2022/08/07 13:46:28;;;;;;;0.40;0.40;;;44.20;30.70;;;;;;5155479;27;20580;-65
2022/08/07 13:49:22;;;;;;;0.50;0.50;;;43.60;30.80;;;;;;5155234;27;20198;-65
2022/08/07 13:52:31;;;;;;;0.50;0.50;;;44.30;31.40;;;;;;5155232;27;20203;-65
2022/08/07 13:55:30;;;;;;;0.50;0.50;;;45.10;30.70;;;;;;5154680;27;20213;-65
2022/08/07 14:01:52;;;;;;;0.50;0.50;;;46.10;29.80;;;;;;5155080;27;20197;-65
2022/08/07 14:04:56;;;;;;;0.50;0.50;;;46.40;29.30;;;;;;5153613;27;20201;-65
2022/08/07 14:07:46;;;;;;;0.50;0.50;;;45.90;29.10;;;;;;5154164;27;20225;-65
2022/08/07 14:10:49;;;;;;;0.50;0.50;;;45.20;29.30;;;;;;5154108;27;20200;-65
2022/08/07 14:14:07;;;;;;;0.50;0.50;;;43.70;29.90;;;;;;5153463;27;20623;-65
2022/08/07 14:16:59;;;;;;;0.50;0.50;;;42.30;30.80;;;;;;5153876;27;20831;-65
2022/08/07 14:20:15;;;;;;;0.40;0.40;;;39.90;31.00;;;;;;5153809;27;20213;-65
2022/08/07 14:23:28;;;;;;;0.50;0.50;;;38.80;33.10;;;;;;5153415;27;20335;-64
2022/08/07 14:26:40;;;;;;;0.40;0.40;;;37.90;33.20;;;;;;5153163;27;20224;-65
2022/08/07 14:29:41;;;;;;;0.40;0.40;;;37.20;34.10;;;;;;5153690;27;20200;-65
2022/08/07 14:32:56;;;;;;;0.40;0.40;;;38.20;34.10;;;;;;5153299;27;20254;-65
2022/08/07 14:35:45;;;;;;;0.40;0.40;;;39.60;32.20;;;;;;5153270;27;20783;-65
2022/08/07 14:38:36;;;;;;;0.50;0.50;;;41.20;31.10;;;;;;5153283;27;20902;-65
2022/08/07 14:41:27;;;;;;;0.40;0.40;;;43.20;30.00;;;;;;5153216;27;20238;-65
2022/08/07 14:44:38;;;;;;;0.50;0.50;;;44.40;29.50;;;;;;5153000;27;20285;-65
2022/08/07 14:47:26;;;;;;;0.50;0.50;;;44.70;29.10;;;;;;5152117;27;20220;-65
2022/08/07 14:50:19;;;;;;;0.50;0.50;;;45.10;29.00;;;;;;5152564;27;20191;-65
2022/08/07 14:53:08;;;;;;;3.33;3.03;;;43.20;28.60;;;;;;5152656;27;20200;-65
2022/08/07 14:55:57;;;;;;;0.40;0.40;;;39.60;29.90;;;;;;5153056;27;20319;-64
2022/08/07 14:58:52;;;;;;;0.50;0.50;;;36.30;33.30;;;;;;5153042;27;20206;-64
2022/08/07 15:01:42;;;;;;;0.40;0.40;;;33.80;35.20;;;;;;5152860;27;20201;-64
2022/08/07 15:04:41;;;;;;;0.40;0.40;;;32.80;36.90;;;;;;5153199;27;20194;-64
2022/08/07 15:07:43;;;;;;;0.40;0.40;;;32.10;37.40;;;;;;5154003;27;20222;-63
2022/08/07 15:10:42;;;;;;;0.40;0.40;;;31.60;38.10;;;;;;5153385;27;20217;-63
2022/08/07 15:13:51;;;;;;;0.40;0.40;;;31.70;38.00;;;;;;5153088;27;20209;-62
2022/08/07 15:16:44;;;;;;;0.40;0.40;;;30.00;39.50;;;;;;5152914;27;20206;-62
2022/08/07 15:19:50;;;;;;;0.50;0.50;;;30.00;40.70;;;;;;5152688;27;20194;-62
2022/08/07 15:23:01;;;;;;;0.40;0.40;;;32.80;39.10;;;;;;5153615;27;20280;-65
2022/08/07 15:26:10;;;;;;;0.40;0.40;;;36.20;35.70;;;;;;5152527;27;20230;-62
2022/08/07 15:29:10;;;;;;;0.40;0.40;;;38.60;33.70;;;;;;5152843;27;20596;-63
2022/08/07 15:32:20;;;;;;;0.43;0.43;;;40.30;32.10;;;;;;5153222;27;20197;-64
2022/08/07 15:35:28;;;;;;;0.50;0.50;;;41.90;31.20;;;;;;5152820;27;20209;-63
2022/08/07 15:38:39;;;;;;;0.40;0.40;;;42.30;30.00;;;;;;5153143;27;20574;-63
2022/08/07 15:41:59;;;;;;;0.40;0.40;;;40.80;30.50;;;;;;5152560;27;20281;-64
2022/08/07 15:45:12;;;;;;;0.40;0.40;;;37.50;33.00;;;;;;5152514;27;20689;-63
2022/08/07 15:48:14;;;;;;;0.40;0.40;;;34.40;35.00;;;;;;5153179;27;20221;-63
2022/08/07 15:51:12;;;;;;;0.63;0.63;;;33.00;37.30;;;;;;5152977;27;20197;-63
2022/08/07 15:54:03;;;;;;;0.40;0.40;;;31.80;38.00;;;;;;5153293;27;20331;-64
2022/08/07 15:57:00;;;;;;;0.70;0.65;;;31.60;38.80;;;;;;5152690;27;20335;-64